Time;durP1;ratioP1;P1;durP2;ratioP2;P2;SDS_P1;SDS_P2;PMS_P1;PMS_P2;Temp;Humidity;BMP_temperature;BMP_pressure;BME280_temperature;BME280_humidity;BME280_pressure;Samples;Min_cycle;Max_cycle;Signal;HPM_P1;HPM_P2
2024/03/29 00:00:10;;;;;;;;;1.00;1.00;;;;;8.30;100.00;98521.34;6328389;20;1804019;-52
2024/03/29 00:02:38;;;;;;;;;1.00;1.00;;;;;8.36;100.00;98523.56;6294538;20;1801361;-51
2024/03/29 00:05:07;;;;;;;;;1.25;1.25;;;;;8.39;100.00;98515.34;6324944;20;1813071;-50
2024/03/29 00:07:34;;;;;;;;;0.25;0.25;;;;;8.33;100.00;98503.25;6325984;20;1800400;-48
2024/03/29 00:10:01;;;;;;;;;1.00;1.00;;;;;8.33;100.00;98505.06;6331359;20;1803492;-53
2024/03/29 00:12:29;;;;;;;;;0.25;0.25;;;;;8.25;100.00;98515.47;6325275;20;1800348;-52
2024/03/29 00:14:56;;;;;;;;;0.50;0.50;;;;;8.30;100.00;98521.34;6323378;20;1810826;-48
2024/03/29 00:17:23;;;;;;;;;2.00;2.00;;;;;8.33;100.00;98526.47;6322583;20;1807706;-48
2024/03/29 00:19:51;;;;;;;;;1.00;1.00;;;;;8.46;100.00;98538.03;6325944;20;1803433;-49
2024/03/29 00:22:18;;;;;;;;;0.00;0.00;;;;;8.47;100.00;98546.91;6323736;20;1803479;-53
2024/03/29 00:24:45;;;;;;;;;0.25;0.25;;;;;8.54;100.00;98556.22;6324632;20;1803547;-49
2024/03/29 00:27:13;;;;;;;;;1.00;1.00;;;;;8.43;100.00;98581.06;6323976;20;1816045;-51
2024/03/29 00:29:41;;;;;;;;;2.67;1.33;;;;;8.42;100.00;98590.03;6325820;20;1803704;-47
2024/03/29 00:32:08;;;;;;;;;0.00;0.00;;;;;8.59;100.00;98614.75;6324956;20;1807576;-50
2024/03/29 00:34:35;;;;;;;;;1.00;1.00;;;;;8.34;100.00;98640.50;6324889;20;1799103;-51
2024/03/29 00:37:03;;;;;;;;;0.00;0.00;;;;;8.44;100.00;98641.59;6324220;20;1802380;-47
2024/03/29 00:39:31;;;;;;;;;0.00;0.00;;;;;8.44;100.00;98663.00;6323655;20;1806353;-49
2024/03/29 00:41:59;;;;;;;;;0.00;0.00;;;;;8.48;100.00;98677.91;6323548;20;1803466;-47
2024/03/29 00:44:26;;;;;;;;;2.00;1.00;;;;;8.53;100.00;98688.25;6324326;20;1803453;-47
2024/03/29 00:46:53;;;;;;;;;0.00;0.00;;;;;8.42;100.00;98685.47;6324923;20;1803278;-48
2024/03/29 00:49:21;;;;;;;;;0.25;0.25;;;;;8.47;100.00;98688.69;6324650;20;1803457;-51
2024/03/29 00:51:48;;;;;;;;;0.75;0.00;;;;;8.43;100.00;98690.72;6326094;20;1803429;-50
2024/03/29 00:54:15;;;;;;;;;0.00;0.00;;;;;8.58;100.00;98704.84;6324547;20;1803486;-49
2024/03/29 00:56:43;;;;;;;;;0.25;0.00;;;;;8.64;100.00;98701.75;6324372;20;1809715;-52
2024/03/29 00:59:10;;;;;;;;;0.00;0.00;;;;;8.68;100.00;98716.63;6324433;20;1803471;-48
2024/03/29 01:01:38;;;;;;;;;0.00;0.00;;;;;8.56;100.00;98709.47;6323112;20;1801992;-48
2024/03/29 01:04:05;;;;;;;;;0.00;0.00;;;;;8.63;100.00;98725.94;6323114;20;1804375;-50
2024/03/29 01:06:33;;;;;;;;;0.00;0.00;;;;;8.52;100.00;98722.19;6322649;20;1809729;-47
2024/03/29 01:09:03;;;;;;;;;0.00;0.00;;;;;8.47;100.00;98715.44;6323590;20;1803440;-50
2024/03/29 01:11:30;;;;;;;;;0.00;0.00;;;;;8.47;100.00;98728.81;6324523;20;1804578;-47
2024/03/29 01:13:58;;;;;;;;;2.50;0.00;;;;;8.43;100.00;98720.16;6323821;20;1809763;-50
2024/03/29 01:16:25;;;;;;;;;0.75;0.75;;;;;8.56;100.00;98730.88;6323286;20;1800386;-49
2024/03/29 01:18:53;;;;;;;;;0.00;0.00;;;;;8.53;100.00;98728.38;6322614;20;1803430;-48
2024/03/29 01:21:20;;;;;;;;;0.00;0.00;;;;;8.47;100.00;98726.13;6322847;20;1809741;-47
2024/03/29 01:23:47;;;;;;;;;1.00;1.00;;;;;8.51;100.00;98717.81;6323975;20;1807881;-51
2024/03/29 01:26:17;;;;;;;;;0.00;0.00;;;;;8.46;100.00;98725.28;6322244;20;1803487;-49
2024/03/29 01:28:44;;;;;;;;;0.50;0.50;;;;;8.51;100.00;98730.31;6323405;20;1809744;-50
2024/03/29 01:31:12;;;;;;;;;0.50;0.50;;;;;8.48;100.00;98722.53;6321732;20;1809755;-48
2024/03/29 01:33:40;;;;;;;;;0.00;0.00;;;;;8.19;100.00;98730.66;6323065;20;1807409;-46
2024/03/29 01:36:08;;;;;;;;;0.00;0.00;;;;;8.00;100.00;98728.34;6323435;20;1809745;-47
2024/03/29 01:38:36;;;;;;;;;0.00;0.00;;;;;8.10;100.00;98728.59;6323175;20;1804555;-52
2024/03/29 01:41:03;;;;;;;;;1.00;0.00;;;;;8.02;100.00;98730.91;6322197;20;1807135;-52
2024/03/29 01:43:31;;;;;;;;;0.00;0.00;;;;;7.96;100.00;98737.53;6323318;20;1802429;-50
2024/03/29 01:45:58;;;;;;;;;0.00;0.00;;;;;7.78;100.00;98741.41;6319929;20;1807697;-49
2024/03/29 01:48:27;;;;;;;;;2.00;0.00;;;;;7.81;100.00;98749.22;6323894;20;1807692;-47
2024/03/29 01:50:57;;;;;;;;;0.00;0.00;;;;;7.82;100.00;98761.63;6324468;20;1803018;-51
2024/03/29 01:53:26;;;;;;;;;0.00;0.00;;;;;7.82;100.00;98777.66;6323739;20;1809736;-47
2024/03/29 01:55:54;;;;;;;;;0.00;0.00;;;;;7.83;100.00;98779.38;6320167;20;1805080;-49
2024/03/29 01:58:22;;;;;;;;;0.00;0.00;;;;;7.87;100.00;98781.78;6323275;20;1803171;-49
2024/03/29 02:00:54;;;;;;;;;0.00;0.00;;;;;7.83;100.00;98795.41;6321564;20;1802854;-53
2024/03/29 02:03:22;;;;;;;;;0.00;0.00;;;;;7.83;100.00;98796.28;6321252;20;1800325;-49
2024/03/29 02:05:50;;;;;;;;;1.00;0.00;;;;;7.93;100.00;98799.22;6320646;20;1809361;-51
2024/03/29 02:08:17;;;;;;;;;1.00;0.25;;;;;7.90;100.00;98815.47;6322707;20;1800463;-52
2024/03/29 02:10:49;;;;;;;;;0.00;0.00;;;;;7.77;100.00;98822.53;6323798;20;1804957;-49
2024/03/29 02:13:16;;;;;;;;;0.00;0.00;;;;;7.81;100.00;98829.41;6327072;20;1802434;-49
2024/03/29 02:15:43;;;;;;;;;0.00;0.00;;;;;7.75;100.00;98838.66;6326506;20;1802387;-52
2024/03/29 02:18:11;;;;;;;;;0.75;0.75;;;;;7.77;100.00;98854.63;6326369;20;1803495;-48
2024/03/29 02:20:38;;;;;;;;;0.75;0.75;;;;;7.79;100.00;98858.03;6327648;20;1802233;-48
2024/03/29 02:23:20;;;;;;;;;0.00;0.00;;;;;7.88;100.00;98869.00;6325248;20;1804632;-47
2024/03/29 02:25:47;;;;;;;;;0.75;0.75;;;;;7.73;100.00;98874.44;6324167;20;1807729;-50
2024/03/29 02:28:15;;;;;;;;;0.00;0.00;;;;;7.73;100.00;98883.31;6326603;20;1803908;-48
2024/03/29 02:30:42;;;;;;;;;0.00;0.00;;;;;7.53;100.00;98894.38;6327373;20;1803432;-48
2024/03/29 02:33:09;;;;;;;;;0.00;0.00;;;;;7.66;100.00;98906.03;6325993;20;1803439;-53
2024/03/29 02:35:37;;;;;;;;;0.00;0.00;;;;;7.61;100.00;98922.34;6325815;20;1805631;-47
2024/03/29 02:38:04;;;;;;;;;0.00;0.00;;;;;7.59;100.00;98921.59;6327186;20;1809748;-52
2024/03/29 02:40:31;;;;;;;;;0.00;0.00;;;;;7.78;100.00;98933.81;6326767;20;1803441;-49
2024/03/29 02:42:59;;;;;;;;;0.00;0.00;;;;;7.55;100.00;98930.72;6325953;20;1803408;-51
2024/03/29 02:45:26;;;;;;;;;0.00;0.00;;;;;7.59;100.00;98942.97;6326968;20;1802888;-51
2024/03/29 02:47:53;;;;;;;;;0.00;0.00;;;;;7.58;100.00;98940.38;6327892;20;1807865;-50
2024/03/29 02:50:20;;;;;;;;;0.00;0.00;;;;;7.67;100.00;98943.34;6305720;20;3428521;-48
2024/03/29 02:52:47;;;;;;;;;0.00;0.00;;;;;7.61;100.00;98954.41;6326716;20;1800579;-48
2024/03/29 02:55:15;;;;;;;;;1.00;1.00;;;;;7.54;100.00;98955.75;6324708;20;1807682;-49
2024/03/29 02:57:42;;;;;;;;;0.00;0.00;;;;;7.60;100.00;98954.50;6328996;20;1806455;-48
2024/03/29 03:00:10;;;;;;;;;0.00;0.00;;;;;7.74;100.00;98962.53;6325512;20;1809736;-51
2024/03/29 03:02:41;;;;;;;;;0.00;0.00;;;;;7.66;100.00;98971.03;6326153;20;1800320;-50
2024/03/29 03:05:09;;;;;;;;;0.00;0.00;;;;;7.54;100.00;98974.44;6324176;20;1799319;-53
2024/03/29 03:13:09;;;;;;;;;0.00;0.00;;;;;7.95;100.00;98988.88;6323917;20;1809627;-52
2024/03/29 03:15:37;;;;;;;;;0.00;0.00;;;;;7.57;100.00;98994.75;6321328;20;1803442;-52
2024/03/29 03:18:04;;;;;;;;;0.00;0.00;;;;;7.34;100.00;98994.31;6324308;20;1806608;-55
2024/03/29 03:20:32;;;;;;;;;0.00;0.00;;;;;7.24;100.00;98990.47;6322528;20;1809853;-52
2024/03/29 03:23:00;;;;;;;;;0.00;0.00;;;;;7.25;100.00;99001.06;6321919;20;1803425;-53
2024/03/29 03:25:28;;;;;;;;;0.00;0.00;;;;;7.12;100.00;98994.72;6323083;20;1803457;-50
2024/03/29 03:27:55;;;;;;;;;0.00;0.00;;;;;6.98;100.00;99008.03;6322631;20;1802431;-53
2024/03/29 03:30:22;;;;;;;;;0.75;0.00;;;;;6.91;100.00;99009.34;6322856;20;1803512;-49
2024/03/29 03:32:50;;;;;;;;;1.00;1.00;;;;;6.67;100.00;99012.44;6324534;20;1799281;-53
2024/03/29 03:35:16;;;;;;;;;1.00;1.00;;;;;7.01;100.00;99013.19;6305215;20;3436097;-47
2024/03/29 03:37:44;;;;;;;;;1.00;1.00;;;;;6.92;100.00;99027.91;6324373;20;1802397;-46
2024/03/29 03:40:11;;;;;;;;;1.00;1.00;;;;;6.77;100.00;99029.66;6324709;20;1807730;-51
2024/03/29 03:42:39;;;;;;;;;0.00;0.00;;;;;6.65;100.00;99014.31;6322428;20;1803405;-47
2024/03/29 03:45:06;;;;;;;;;0.50;0.50;;;;;6.72;100.00;99025.53;6323205;20;1800349;-51
2024/03/29 03:47:34;;;;;;;;;1.00;1.00;;;;;6.59;100.00;99014.69;6323936;20;1805555;-52
2024/03/29 03:50:00;;;;;;;;;0.67;0.67;;;;;6.52;100.00;99018.63;6307658;20;3439837;-47
2024/03/29 03:52:27;;;;;;;;;1.00;1.00;;;;;6.17;100.00;99016.09;6290425;20;1809693;-48
2024/03/29 03:54:55;;;;;;;;;0.00;0.00;;;;;6.28;100.00;99013.72;6323615;20;1809781;-49
2024/03/29 03:57:23;;;;;;;;;0.00;0.00;;;;;6.82;100.00;99019.59;6323981;20;1803445;-45
2024/03/29 03:59:50;;;;;;;;;0.00;0.00;;;;;5.90;100.00;99037.09;6325223;20;1803452;-49
2024/03/29 04:02:18;;;;;;;;;0.00;0.00;;;;;5.69;100.00;99025.75;6323869;20;1804475;-53
2024/03/29 04:04:48;;;;;;;;;0.00;0.00;;;;;6.22;100.00;99040.72;6295394;20;3435814;-53
2024/03/29 04:07:15;;;;;;;;;0.50;0.50;;;;;6.09;100.00;99042.31;6324631;20;1809481;-49
2024/03/29 04:09:43;;;;;;;;;0.00;0.00;;;;;6.43;100.00;99040.50;6326260;20;1803406;-49
2024/03/29 04:12:10;;;;;;;;;0.00;0.00;;;;;6.34;100.00;99040.03;6326259;20;1805511;-52
2024/03/29 04:14:36;;;;;;;;;0.00;0.00;;;;;6.16;100.00;99049.00;6305459;20;3435700;-48
2024/03/29 04:17:04;;;;;;;;;0.00;0.00;;;;;6.20;100.00;99069.25;6325328;20;1808401;-50
2024/03/29 04:19:31;;;;;;;;;0.00;0.00;;;;;6.21;100.00;99064.78;6326438;20;1804155;-49
2024/03/29 04:21:58;;;;;;;;;0.00;0.00;;;;;6.26;100.00;99076.03;6323312;20;1799348;-51
2024/03/29 04:24:28;;;;;;;;;1.00;0.50;;;;;6.20;100.00;99092.38;6322038;20;1805533;-52
2024/03/29 04:26:54;;;;;;;;;0.00;0.00;;;;;6.09;100.00;99087.63;6307529;20;3435960;-49
2024/03/29 04:29:21;;;;;;;;;0.00;0.00;;;;;6.25;100.00;99093.84;6324541;20;1809671;-50
2024/03/29 04:31:49;;;;;;;;;1.25;0.25;;;;;6.40;100.00;99096.63;6325445;20;1809724;-51
2024/03/29 04:34:15;;;;;;;;;0.00;0.00;;;;;6.22;100.00;99112.69;6305899;20;2718077;-49
2024/03/29 04:36:43;;;;;;;;;0.00;0.00;;;;;6.23;100.00;99121.53;6322817;20;1804462;-53
2024/03/29 04:39:09;;;;;;;;;0.67;0.67;;;;;6.24;100.00;99120.56;6306982;20;3439870;-50
2024/03/29 04:41:37;;;;;;;;;1.00;1.00;;;;;6.34;100.00;99113.81;6292946;20;1803426;-53
2024/03/29 04:44:04;;;;;;;;;1.00;1.00;;;;;6.25;100.00;99112.50;6321566;20;1802367;-51
2024/03/29 04:46:32;;;;;;;;;0.25;0.25;;;;;6.30;100.00;99110.47;6323685;20;1803429;-51
2024/03/29 04:48:59;;;;;;;;;1.00;1.00;;;;;6.31;100.00;99117.50;6322658;20;1809819;-54
2024/03/29 04:51:26;;;;;;;;;1.00;1.00;;;;;6.22;100.00;99125.16;6323407;20;1809764;-54
2024/03/29 04:53:54;;;;;;;;;30.50;26.00;;;;;6.03;100.00;99127.91;6303743;20;2854880;-54
2024/03/29 04:56:21;;;;;;;;;11.50;9.25;;;;;5.99;100.00;99126.34;6292076;20;1816699;-49
2024/03/29 04:58:48;;;;;;;;;10.00;10.00;;;;;6.14;100.00;99136.22;6303692;20;2802438;-54
2024/03/29 05:01:14;;;;;;;;;9.00;9.00;;;;;6.75;100.00;99142.75;6277503;20;2742002;-55
2024/03/29 05:03:41;;;;;;;;;9.00;9.00;;;;;6.44;100.00;99156.88;6302403;20;2760755;-52
2024/03/29 05:06:08;;;;;;;;;17.00;15.67;;;;;6.35;100.00;99163.56;6271619;20;3534619;-55
2024/03/29 05:08:35;;;;;;;;;4.00;4.00;;;;;6.72;100.00;99167.78;6305954;20;2756642;-53
2024/03/29 05:11:02;;;;;;;;;9.00;9.00;;;;;6.71;100.00;99165.19;6274614;20;2750300;-55
2024/03/29 05:13:31;;;;;;;;;3.25;3.25;;;;;7.02;100.00;99164.38;6290869;20;1812380;-54
2024/03/29 05:15:58;;;;;;;;;4.00;3.00;;;;;7.93;100.00;99170.75;6304501;20;2736734;-51
2024/03/29 05:18:25;;;;;;;;;3.25;3.00;;;;;7.25;100.00;99173.75;6322483;20;1805571;-54
2024/03/29 05:20:53;;;;;;;;;3.00;1.00;;;;;7.33;100.00;99178.69;6321128;20;1822203;-56
2024/03/29 05:23:20;;;;;;;;;4.00;4.00;;;;;7.03;100.00;99174.13;6320564;20;1818162;-54
2024/03/29 05:25:49;;;;;;;;;3.25;3.25;;;;;6.95;100.00;99178.97;6321063;20;1818199;-54
2024/03/29 05:28:16;;;;;;;;;4.00;4.00;;;;;6.85;100.00;99175.97;6323336;20;1818534;-53
2024/03/29 05:30:44;;;;;;;;;3.75;3.75;;;;;7.34;100.00;99188.41;6322794;20;1807646;-53
2024/03/29 05:33:11;;;;;;;;;3.50;2.00;;;;;7.38;100.00;99190.81;6305456;20;2749339;-52
2024/03/29 05:35:38;;;;;;;;;1.00;1.00;;;;;8.34;100.00;99196.81;6291228;20;1805516;-53
2024/03/29 05:38:05;;;;;;;;;2.25;2.00;;;;;8.14;100.00;99200.69;6323492;20;1802163;-53
2024/03/29 05:40:32;;;;;;;;;1.50;1.50;;;;;8.85;100.00;99197.28;6307618;20;2733688;-53
2024/03/29 05:42:58;;;;;;;;;2.00;2.00;;;;;9.13;100.00;99198.22;6304268;20;2748165;-50
2024/03/29 05:45:30;;;;;;;;;1.00;1.00;;;;;10.76;89.65;99197.13;6289116;20;1809804;-55
2024/03/29 05:47:59;;;;;;;;;8.00;7.25;;;;;8.50;100.00;99184.25;6323092;20;1811964;-52
2024/03/29 05:50:27;;;;;;;;;23.50;22.00;;;;;8.49;100.00;99193.25;6302030;20;2841340;-53
2024/03/29 05:52:54;;;;;;;;;30.50;24.50;;;;;10.55;94.12;99204.00;6271796;20;2843041;-51
2024/03/29 05:55:21;;;;;;;;;10.00;8.00;;;;;9.32;99.48;99205.94;6269152;20;2750277;-52
2024/03/29 05:57:48;;;;;;;;;12.33;10.67;;;;;9.22;100.00;99217.25;6272672;20;3505459;-50
2024/03/29 06:00:15;;;;;;;;;3.00;3.00;;;;;12.46;80.45;99218.75;6305211;20;2745115;-51
2024/03/29 06:02:47;;;;;;;;;8.00;6.00;;;;;11.76;83.86;99230.28;6273430;20;2748307;-53
2024/03/29 06:05:14;;;;;;;;;5.00;5.00;;;;;12.66;72.70;99235.22;6273607;20;2747292;-51
2024/03/29 06:07:42;;;;;;;;;4.00;4.00;;;;;11.97;80.38;99232.38;6294570;20;2754467;-53
2024/03/29 06:10:10;;;;;;;;;3.00;2.00;;;;;13.27;70.54;99241.22;6306179;20;2769050;-50
2024/03/29 06:12:38;;;;;;;;;3.00;3.00;;;;;12.35;74.91;99240.28;6274133;20;2733637;-53
2024/03/29 06:17:53;;;;;;;;;1.75;1.75;;;;;9.72;97.05;99233.72;6320995;20;1809768;-52
2024/03/29 06:20:20;;;;;;;;;2.00;2.00;;;;;9.52;100.00;99236.81;6304679;20;2748206;-52
2024/03/29 06:22:47;;;;;;;;;1.00;1.00;;;;;10.04;97.01;99230.72;6290960;20;1809772;-52
2024/03/29 06:25:15;;;;;;;;;1.50;1.50;;;;;10.37;93.46;99245.53;6304433;20;2726482;-51
2024/03/29 06:27:51;;;;;;;;;3.00;2.00;;;;;10.48;94.89;99243.00;6292086;20;1811566;-48
2024/03/29 06:30:19;;;;;;;;;3.00;3.00;;;;;10.56;92.10;99240.66;6305390;20;2756562;-48
2024/03/29 06:32:46;;;;;;;;;1.00;1.00;;;;;11.05;90.13;99245.25;6291832;20;1800422;-51
2024/03/29 06:35:13;;;;;;;;;1.25;1.25;;;;;11.21;88.79;99251.25;6320288;20;1809480;-54
2024/03/29 06:37:41;;;;;;;;;2.50;2.50;;;;;11.47;86.33;99250.38;6306316;20;2750300;-49
2024/03/29 06:40:10;;;;;;;;;2.00;1.00;;;;;11.37;85.50;99253.75;6292870;20;1809797;-50
2024/03/29 06:42:37;;;;;;;;;3.50;2.00;;;;;11.73;84.84;99261.94;6306685;20;2754442;-50
2024/03/29 06:45:05;;;;;;;;;2.00;2.00;;;;;11.53;84.31;99279.50;6273009;20;2754572;-54
2024/03/29 06:47:33;;;;;;;;;1.00;1.00;;;;;11.40;84.45;99271.44;6289597;20;1798306;-50
2024/03/29 06:49:59;;;;;;;;;3.00;3.00;;;;;12.33;80.62;99266.44;6305261;20;2756731;-52
2024/03/29 06:52:26;;;;;;;;;5.00;5.00;;;;;12.16;79.52;99275.78;6275826;20;2748830;-52
2024/03/29 06:54:53;;;;;;;;;4.00;4.00;;;;;12.11;79.77;99277.09;6273209;20;2751372;-49
2024/03/29 06:57:23;;;;;;;;;7.00;7.00;;;;;12.32;78.42;99285.41;6278885;20;2744049;-48
2024/03/29 06:59:49;;;;;;;;;7.50;7.50;;;;;12.23;78.15;99281.56;6281636;20;2740914;-49
2024/03/29 07:02:16;;;;;;;;;7.00;6.00;;;;;12.37;77.70;99284.06;6280821;20;2739895;-49
2024/03/29 07:04:43;;;;;;;;;10.00;10.00;;;;;12.49;76.45;99272.38;6275747;20;3488818;-48
2024/03/29 07:07:11;;;;;;;;;16.00;16.00;;;;;12.75;75.89;99274.91;6309670;20;3566942;-46
2024/03/29 07:09:37;;;;;;;;;13.50;13.50;;;;;13.21;73.66;99279.41;6280223;20;2802370;-49
2024/03/29 07:12:04;;;;;;;;;8.00;8.00;;;;;13.84;70.43;99283.31;6278136;20;2745098;-47
2024/03/29 07:14:33;;;;;;;;;2.00;2.00;;;;;13.49;70.67;99282.63;6283798;20;2725312;-48
2024/03/29 07:16:59;;;;;;;;;5.00;3.50;;;;;14.35;69.89;99292.66;6281393;20;2753468;-50
2024/03/29 07:19:26;;;;;;;;;1.50;1.50;;;;;13.52;71.71;99293.19;6282773;20;2728438;-48
2024/03/29 07:21:56;;;;;;;;;1.40;1.40;;;;;14.41;66.64;99297.53;6321286;20;2464887;-53
2024/03/29 07:24:23;;;;;;;;;0.75;0.75;;;;;14.59;64.63;99305.97;6321354;20;1803245;-51
2024/03/29 07:26:50;;;;;;;;;1.00;0.00;;;;;14.60;64.95;99296.88;6308052;20;2731534;-49
2024/03/29 07:29:16;;;;;;;;;0.00;0.00;;;;;14.50;65.51;99301.31;6280240;20;2729586;-54
2024/03/29 07:31:43;;;;;;;;;0.00;0.00;;;;;13.89;68.53;99320.75;6280303;20;2730554;-49
2024/03/29 07:34:10;;;;;;;;;0.00;0.00;;;;;14.32;67.64;99325.31;6280126;20;2731573;-50
2024/03/29 07:36:37;;;;;;;;;0.00;0.00;;;;;14.37;69.39;99325.78;6280793;20;2726741;-51
2024/03/29 07:39:05;;;;;;;;;0.00;0.00;;;;;14.94;63.73;99331.84;6281897;20;2726315;-51
2024/03/29 07:41:31;;;;;;;;;0.00;0.00;;;;;14.46;67.10;99326.88;6282583;20;2727493;-50
2024/03/29 07:44:03;;;;;;;;;0.00;0.00;;;;;14.23;66.47;99337.72;6281700;20;2729427;-48
2024/03/29 07:46:34;;;;;;;;;0.00;0.00;;;;;14.83;64.81;99334.63;6283312;20;2734384;-53
2024/03/29 07:49:01;;;;;;;;;0.00;0.00;;;;;15.00;62.79;99341.28;6281088;20;2735793;-50
2024/03/29 07:51:29;;;;;;;;;0.00;0.00;;;;;14.08;66.71;99332.72;6297113;20;1800420;-51
2024/03/29 07:53:56;;;;;;;;;0.00;0.00;;;;;15.38;64.89;99356.94;6312177;20;2733734;-49
2024/03/29 07:56:24;;;;;;;;;2.00;0.00;;;;;15.35;63.99;99355.34;6280745;20;2731152;-54
2024/03/29 07:58:55;;;;;;;;;0.00;0.00;;;;;15.83;60.99;99348.50;6299858;20;1778475;-50
2024/03/29 08:01:23;;;;;;;;;0.00;0.00;;;;;15.71;61.08;99342.28;6311693;20;2727397;-52
2024/03/29 08:03:53;;;;;;;;;0.00;0.00;;;;;16.02;59.79;99351.25;6281489;20;2727403;-52
2024/03/29 08:06:20;;;;;;;;;0.00;0.00;;;;;15.79;59.39;99352.44;6281759;20;2733616;-50
2024/03/29 08:08:46;;;;;;;;;0.00;0.00;;;;;15.53;61.85;99343.88;6281483;20;2735770;-51
2024/03/29 08:11:13;;;;;;;;;0.00;0.00;;;;;15.86;60.08;99341.94;6281330;20;2735711;-51
2024/03/29 08:13:41;;;;;;;;;0.00;0.00;;;;;15.43;62.32;99345.69;6284496;20;2733671;-52
2024/03/29 08:16:09;;;;;;;;;2.00;0.00;;;;;16.27;60.16;99348.19;6281440;20;2729421;-51
2024/03/29 08:18:35;;;;;;;;;0.00;0.00;;;;;16.20;58.28;99353.31;6282574;20;2727402;-52
2024/03/29 08:21:03;;;;;;;;;1.00;1.00;;;;;15.85;58.00;99357.34;6281912;20;2733694;-54
2024/03/29 08:23:30;;;;;;;;;0.00;0.00;;;;;15.95;57.86;99366.34;6283667;20;2727375;-52
2024/03/29 08:25:57;;;;;;;;;0.00;0.00;;;;;16.59;56.24;99358.81;6278643;20;2727360;-52
2024/03/29 08:28:24;;;;;;;;;0.00;0.00;;;;;16.46;55.27;99365.34;6283924;20;2727414;-52
2024/03/29 08:31:09;;;;;;;;;0.00;0.00;;;;;16.20;57.35;99370.41;6281584;20;2727391;-50
2024/03/29 08:33:37;;;;;;;;;0.00;0.00;;;;;17.10;53.74;99360.41;6283313;20;2727402;-54
2024/03/29 08:36:06;;;;;;;;;0.50;0.00;;;;;16.95;55.15;99367.25;6282185;20;2729475;-51
2024/03/29 08:38:32;;;;;;;;;1.00;1.00;;;;;16.70;56.47;99355.97;6282841;20;2739883;-52
2024/03/29 08:40:59;;;;;;;;;0.00;0.00;;;;;15.91;57.15;99345.09;6280432;20;2733598;-56
2024/03/29 08:43:26;;;;;;;;;0.00;0.00;;;;;16.62;55.49;99348.53;6282643;20;2730646;-56
2024/03/29 08:45:53;;;;;;;;;1.00;1.00;;;;;16.48;56.45;99351.63;6279899;20;2741997;-53
2024/03/29 08:48:19;;;;;;;;;0.00;0.00;;;;;16.90;51.97;99340.56;6283939;20;2731531;-51
2024/03/29 08:50:46;;;;;;;;;1.00;1.00;;;;;16.68;54.85;99352.53;6281110;20;2728488;-53
2024/03/29 08:53:13;;;;;;;;;0.00;0.00;;;;;16.53;55.02;99345.81;6283379;20;2729447;-53
2024/03/29 08:55:40;;;;;;;;;0.00;0.00;;;;;16.62;54.61;99350.41;6280527;20;2733704;-52
2024/03/29 08:58:07;;;;;;;;;1.00;0.00;;;;;17.23;52.94;99344.69;6284621;20;2726366;-52
2024/03/29 09:00:33;;;;;;;;;0.00;0.00;;;;;17.13;50.64;99341.13;6281668;20;2727429;-52
2024/03/29 09:03:01;;;;;;;;;0.00;0.00;;;;;17.40;51.67;99331.34;6282287;20;2733638;-54
2024/03/29 09:05:29;;;;;;;;;0.00;0.00;;;;;17.15;49.67;99336.41;6280163;20;2727366;-52
2024/03/29 09:07:56;;;;;;;;;0.50;0.00;;;;;17.46;49.02;99347.06;6282550;20;2723341;-55
2024/03/29 09:10:26;;;;;;;;;1.00;0.00;;;;;16.93;49.17;99348.44;6282777;20;2727384;-51
2024/03/29 09:12:53;;;;;;;;;0.00;0.00;;;;;17.34;48.66;99343.66;6284906;20;2437745;-51
2024/03/29 09:15:20;;;;;;;;;1.00;0.00;;;;;17.39;46.85;99335.09;6297451;20;1786963;-52
2024/03/29 09:17:48;;;;;;;;;0.00;0.00;;;;;17.74;46.39;99329.81;6326372;20;1787874;-53
2024/03/29 09:20:14;;;;;;;;;0.00;0.00;;;;;17.38;44.77;99328.81;6311392;20;2706635;-55
2024/03/29 09:22:41;;;;;;;;;0.00;0.00;;;;;18.20;44.57;99325.34;6280583;20;2727385;-50
2024/03/29 09:25:13;;;;;;;;;0.00;0.00;;;;;17.63;42.30;99315.59;6280365;20;2731647;-52
2024/03/29 09:27:48;;;;;;;;;0.00;0.00;;;;;18.24;43.10;99320.44;6323149;20;2447158;-54
2024/03/29 09:30:15;;;;;;;;;0.00;0.00;;;;;18.25;42.88;99319.47;6311689;20;2727404;-54
2024/03/29 09:32:41;;;;;;;;;0.00;0.00;;;;;18.41;44.61;99313.34;6285753;20;2725420;-55
2024/03/29 09:35:09;;;;;;;;;0.00;0.00;;;;;18.47;43.05;99310.00;6281935;20;2734038;-55
2024/03/29 09:37:37;;;;;;;;;0.00;0.00;;;;;18.37;42.97;99301.06;6302013;20;2725548;-54
2024/03/29 09:40:07;;;;;;;;;0.00;0.00;;;;;18.69;43.06;99310.53;6306199;20;2726511;-52
2024/03/29 09:42:35;;;;;;;;;0.00;0.00;;;;;18.60;42.16;99310.47;6304825;20;2727407;-52
2024/03/29 09:45:03;;;;;;;;;0.00;0.00;;;;;18.72;40.82;99302.06;6306010;20;2439820;-53
2024/03/29 09:47:35;;;;;;;;;0.00;0.00;;;;;19.00;40.07;99295.53;6309414;20;2724239;-57
2024/03/29 09:50:05;;;;;;;;;0.00;0.00;;;;;18.60;43.18;99304.19;6302569;20;2727367;-55
2024/03/29 09:52:34;;;;;;;;;0.00;0.00;;;;;18.67;41.19;99285.34;6303559;20;2726465;-53
2024/03/29 09:55:02;;;;;;;;;0.00;0.00;;;;;18.97;42.15;99295.88;6300347;20;2727359;-52
2024/03/29 09:57:30;;;;;;;;;0.00;0.00;;;;;18.73;40.63;99292.91;6304920;20;2719125;-52
2024/03/29 09:59:58;;;;;;;;;1.33;0.00;;;;;18.54;40.94;99300.22;6304189;20;2733721;-53
2024/03/29 10:02:31;;;;;;;;;0.00;0.00;;;;;18.78;41.25;99296.06;6300451;20;2731559;-52
2024/03/29 10:05:06;;;;;;;;;0.00;0.00;;;;;18.65;40.80;99286.38;6305539;20;2735870;-52
2024/03/29 10:07:36;;;;;;;;;0.00;0.00;;;;;18.88;41.75;99283.22;6309772;20;2729454;-53
2024/03/29 10:10:03;;;;;;;;;0.00;0.00;;;;;19.15;41.99;99278.66;6308971;20;2725403;-52
2024/03/29 10:12:30;;;;;;;;;0.00;0.00;;;;;19.02;42.82;99276.34;6309866;20;2727436;-54
2024/03/29 10:15:14;;;;;;;;;1.00;1.00;;;;;18.60;41.91;99277.84;6305474;20;2735714;-49
2024/03/29 10:17:51;;;;;;;;;0.00;0.00;;;;;18.93;42.18;99274.56;6304706;20;2729518;-53
2024/03/29 10:20:19;;;;;;;;;0.00;0.00;;;;;19.29;42.23;99283.50;6307911;20;2727425;-51
2024/03/29 10:22:46;;;;;;;;;1.00;0.00;;;;;19.26;41.73;99281.09;6309193;20;2728284;-49
2024/03/29 10:25:15;;;;;;;;;0.00;0.00;;;;;18.99;41.36;99276.69;6308080;20;2723203;-50
2024/03/29 10:27:43;;;;;;;;;0.00;0.00;;;;;18.79;42.48;99265.13;6308424;20;2736137;-53
2024/03/29 10:30:14;;;;;;;;;0.00;0.00;;;;;18.93;42.89;99278.16;6309484;20;2727360;-53
2024/03/29 10:32:41;;;;;;;;;1.00;0.00;;;;;18.89;43.91;99268.59;6313007;20;2731559;-54
2024/03/29 10:35:09;;;;;;;;;1.00;0.00;;;;;18.56;42.67;99279.19;6311520;20;2730477;-54
2024/03/29 10:37:40;;;;;;;;;0.00;0.00;;;;;18.47;43.65;99273.81;6313273;20;2735805;-55
2024/03/29 10:40:16;;;;;;;;;0.00;0.00;;;;;19.11;44.79;99267.22;6314846;20;2735713;-52
2024/03/29 10:42:45;;;;;;;;;1.33;1.33;;;;;18.69;46.24;99265.16;6313640;20;2735796;-52
2024/03/29 10:45:13;;;;;;;;;1.67;0.00;;;;;19.05;44.62;99266.00;6312653;20;2727543;-53
2024/03/29 10:47:44;;;;;;;;;0.00;0.00;;;;;18.38;45.61;99253.84;6316753;20;2728602;-51
2024/03/29 10:50:13;;;;;;;;;0.00;0.00;;;;;18.60;46.25;99256.09;6314621;20;2727510;-50
2024/03/29 10:52:40;;;;;;;;;0.00;0.00;;;;;19.24;45.60;99258.63;6315073;20;2735762;-54
2024/03/29 10:55:10;;;;;;;;;0.00;0.00;;;;;18.47;45.95;99255.63;6310926;20;2735852;-50
2024/03/29 10:57:43;;;;;;;;;0.00;0.00;;;;;19.13;47.03;99250.75;6312083;20;2733752;-51
2024/03/29 11:00:20;;;;;;;;;0.00;0.00;;;;;18.65;45.12;99251.03;6313193;20;2735723;-53
2024/03/29 11:03:32;;;;;;;;;0.33;0.00;;;;;18.99;46.20;99255.75;6313434;20;2731671;-52
2024/03/29 11:06:06;;;;;;;;;1.67;0.00;;;;;19.18;45.14;99254.69;6312431;20;2735823;-50
2024/03/29 11:08:42;;;;;;;;;0.00;0.00;;;;;18.87;45.38;99251.56;6313355;20;2729483;-49
2024/03/29 11:11:10;;;;;;;;;0.00;0.00;;;;;18.88;45.80;99239.69;6310458;20;2735769;-52
2024/03/29 11:14:05;;;;;;;;;0.00;0.00;;;;;18.89;45.71;99227.78;6313762;20;2728571;-55
2024/03/29 11:16:32;;;;;;;;;0.67;0.00;;;;;18.65;46.15;99226.56;6312572;20;2727385;-54
2024/03/29 11:19:04;;;;;;;;;1.00;0.00;;;;;19.16;45.86;99217.75;6314298;20;2727444;-54
2024/03/29 11:21:32;;;;;;;;;0.67;0.00;;;;;19.41;45.77;99211.44;6313257;20;2729458;-53
2024/03/29 11:24:04;;;;;;;;;3.00;0.00;;;;;19.56;45.64;99205.38;6313251;20;2730445;-53
2024/03/29 11:26:34;;;;;;;;;0.00;0.00;;;;;20.27;45.03;99207.63;6311709;20;2733620;-57
2024/03/29 11:29:02;;;;;;;;;0.00;0.00;;;;;20.43;44.55;99195.03;6313185;20;2733665;-55